Pineville, MO

8:37 AM CDT on September 23, 2014 (GMT -0500)
Grove Municipal | Change Station
CLOSE
Current Station
Airport
Location: Grove,
Elevation: 833 ft
Nearby Weather Stations

Elev 833 ft 36.60 °N, 94.74 °W | Updated 22 minutes ago

Clear
Clear
54 °F
Feels Like 54 °F
N
0
Wind Variable Wind from North

Today
High -- | Low -- °F
--% Chance of Precip.
Yesterday
High -- | Low -- °F
Precip. -- in
7:06 AM 7:12 PM
Waning Crescent, 0% visible
Pressure 30.26 in
Visibility 10.0 miles
Clouds Clear
Dew Point 54 °F
Humidity 100%
Rainfall 0.00 in
Snow Depth Not available.
UV 1 out of 12
Pollen 5.80 out of 12
Air Quality Not available.
Flu Activity Not available.
METAR KGMJ 231315Z AUTO 00000KT 10SM CLR 12/12 A3026 RMK AO2 LTG DSNT NW

More Conditions Fewer Conditions

Pressure 30.26 in
Visibility 10.0 miles
Clouds Clear
Dew Point 54 °F
Humidity 100%
Rainfall 0.00 in
Snow Depth Not available.
UV 1 out of 12
Pollen 5.80 out of 12
Air Quality Not available.
Flu Activity Not available.
METAR KGMJ 231315Z AUTO 00000KT 10SM CLR 12/12 A3026 RMK AO2 LTG DSNT NW

More Conditions Fewer Conditions

10-Day Weather Forecast

Almanac

Astronomy

Sep. 23, 2014 Rise Set
Actual Time 7:06 AM CDT 7:12 PM CDT
Civil Twilight 6:40 AM CDT 7:38 PM CDT
Nautical Twilight 6:10 AM CDT 8:08 PM CDT
Astronomical Twilight 5:39 AM CDT 8:39 PM CDT
Moon 6:31 AM CDT 6:52 PM CDT
Length of Visible Light 12h 58m
Length of Day
12h 06m
Tomorrow will be 2m 19s shorter.
Waning Crescent, 0% of the Moon is Illuminated
Today
Waning Crescent
Sep 24
New
Oct 1
First Quarter
Oct 8
Full
Oct 15
Last Quarter

Today's Extremes

State Highs State Lows

Community

WunderPhotos

Upload Photos

1,755,669 photos uploaded!

WunderBlogs® & News

Nearby

Snow Depth

Station Depth Elevation
No new snow has been reported.

Earthquake Activity

City Distance Mag. Time & Date
No recent earthquake activity has been reported nearby.
Minimum magnitude displayed is 2.5.

Coastal Water Temperatures

Place Temperature
No Stations Reporting

Nearby Weather Stations